Terminal Aerodrome Forecast
Issued by NWS

Home | Current Version | Previous Version | Text Only | Print | Product List | Glossary On
Versions: 1 2 3 4 5 6 7 8 9 10 11 12 13 14 15 16 17 18 19 20 21 22 23
000
FTUS46 KPDT 201139
TAFBDN
TAF
KBDN 201139Z 2012/2112 21011KT P6SM VCSH SCT025 BKN040 OVC060
     FM201700 22020G30KT P6SM SCT040 BKN080
     FM210200 20007KT P6SM BKN080
     FM210500 VRB05KT P6SM BKN035 OVC050
     FM211000 21005KT 4SM -SNRA OVC011=

USA.gov is the U.S. government's official web portal to all federal, state and local government web resources and services.